createdAt,value
2019-03-12T00:00:13.927Z,14.03
2019-03-12T00:02:40.495Z,14.23
2019-03-12T00:05:07.095Z,13.13
2019-03-12T00:07:33.662Z,13.63
2019-03-12T00:10:00.420Z,13.20
2019-03-12T00:12:27.015Z,13.40
2019-03-12T00:14:53.622Z,14.87
2019-03-12T00:17:20.209Z,14.53
2019-03-12T00:19:46.804Z,15.00
2019-03-12T00:22:13.382Z,14.67
2019-03-12T00:24:39.984Z,13.40
2019-03-12T00:27:06.554Z,14.63
2019-03-12T00:29:33.138Z,13.53
2019-03-12T00:31:59.710Z,13.30
2019-03-12T00:34:26.288Z,13.00
2019-03-12T00:36:52.860Z,12.93
2019-03-12T00:39:19.448Z,13.13
2019-03-12T00:41:46.013Z,12.30
2019-03-12T00:44:12.592Z,11.83
2019-03-12T00:46:39.287Z,12.97
2019-03-12T00:49:05.857Z,12.97
2019-03-12T00:51:32.437Z,12.40
2019-03-12T00:53:59.011Z,11.93
2019-03-12T00:56:25.579Z,12.93
2019-03-12T00:58:52.162Z,12.23
2019-03-12T01:01:18.732Z,11.80
2019-03-12T01:03:45.299Z,12.63
2019-03-12T01:06:11.882Z,10.97
2019-03-12T01:08:38.458Z,9.97
2019-03-12T01:11:05.036Z,9.40
2019-03-12T01:13:31.609Z,7.47
2019-03-12T01:15:58.187Z,7.20
2019-03-12T01:18:24.757Z,8.20
2019-03-12T01:20:51.334Z,7.83
2019-03-12T01:23:17.903Z,7.67
2019-03-12T01:25:44.491Z,6.27
2019-03-12T01:28:11.061Z,6.43
2019-03-12T01:30:37.632Z,6.30
2019-03-12T01:33:04.204Z,6.17
2019-03-12T01:35:30.790Z,5.67
2019-03-12T01:37:57.359Z,6.63
2019-03-12T01:40:23.938Z,6.67
2019-03-12T01:42:52.572Z,5.90
2019-03-12T01:45:18.799Z,5.60
2019-03-12T01:47:45.370Z,5.77
2019-03-12T01:50:11.941Z,6.00
2019-03-12T01:52:38.541Z,5.90
2019-03-12T01:55:05.116Z,5.80
2019-03-12T01:57:31.735Z,5.27
2019-03-12T01:59:58.292Z,5.27
2019-03-12T02:02:24.907Z,5.40
2019-03-12T02:04:51.505Z,5.40
2019-03-12T02:07:18.108Z,5.67
2019-03-12T02:09:44.690Z,6.10
2019-03-12T02:12:11.303Z,5.67
2019-03-12T02:14:37.872Z,5.93
2019-03-12T02:17:04.480Z,4.83
2019-03-12T02:19:31.050Z,5.53
2019-03-12T02:21:57.645Z,6.97
2019-03-12T02:24:24.222Z,5.77
2019-03-12T02:26:50.834Z,7.13
2019-03-12T02:29:17.395Z,6.67
2019-03-12T02:31:43.981Z,6.50
2019-03-12T02:34:10.557Z,6.20
2019-03-12T02:36:37.154Z,6.10
2019-03-12T02:39:03.770Z,6.50
2019-03-12T02:41:30.440Z,7.37
2019-03-12T02:43:57.003Z,7.00
2019-03-12T02:46:23.630Z,7.17
2019-03-12T02:48:50.207Z,7.87
2019-03-12T02:51:16.819Z,7.50
2019-03-12T02:53:43.390Z,7.70
2019-03-12T02:56:09.995Z,7.10
2019-03-12T02:58:36.603Z,7.57
2019-03-12T03:01:03.194Z,7.27
2019-03-12T03:03:29.896Z,7.33
2019-03-12T03:05:56.510Z,7.43
2019-03-12T03:08:23.143Z,9.43
2019-03-12T03:10:49.728Z,9.20
2019-03-12T03:13:16.367Z,7.43
2019-03-12T03:15:42.941Z,8.80
2019-03-12T03:18:09.514Z,9.77
2019-03-12T03:20:36.087Z,9.83
2019-03-12T03:23:02.830Z,9.83
2019-03-12T03:25:29.444Z,9.77
2019-03-12T03:27:56.097Z,9.00
2019-03-12T03:30:22.741Z,10.20
2019-03-12T03:32:49.373Z,8.77
2019-03-12T03:35:15.943Z,9.83
2019-03-12T03:37:42.529Z,9.77
2019-03-12T03:40:09.114Z,9.70
2019-03-12T03:42:35.719Z,9.50
2019-03-12T03:45:02.290Z,10.10
2019-03-12T03:47:28.875Z,12.23
2019-03-12T03:49:55.456Z,10.93
2019-03-12T03:52:22.039Z,10.57
2019-03-12T03:54:48.612Z,9.63
2019-03-12T03:57:15.265Z,11.73
2019-03-12T03:59:41.971Z,10.33
2019-03-12T04:02:08.587Z,11.07
2019-03-12T04:04:35.151Z,10.47
2019-03-12T04:07:01.762Z,11.60
2019-03-12T04:09:28.399Z,12.73
2019-03-12T04:11:55.014Z,11.33
2019-03-12T04:14:21.644Z,10.47
2019-03-12T04:16:48.237Z,8.33
2019-03-12T04:19:14.811Z,9.13
2019-03-12T04:21:41.402Z,9.20
2019-03-12T04:24:07.993Z,9.73
2019-03-12T04:26:34.611Z,9.87
2019-03-12T04:29:01.174Z,9.73
2019-03-12T04:31:27.776Z,9.30
2019-03-12T04:33:54.442Z,8.37
2019-03-12T04:36:21.055Z,7.27
2019-03-12T04:38:47.631Z,8.33
2019-03-12T04:41:14.197Z,8.53
2019-03-12T04:43:40.811Z,8.93
2019-03-12T04:46:07.432Z,8.50
2019-03-12T04:48:34.016Z,8.77
2019-03-12T04:51:00.588Z,11.37
2019-03-12T04:53:27.168Z,8.67
2019-03-12T04:55:53.736Z,9.60
2019-03-12T04:58:20.304Z,9.03
2019-03-12T05:00:46.897Z,8.17
2019-03-12T05:03:13.459Z,9.27
2019-03-12T05:05:40.042Z,8.80
2019-03-12T05:08:06.613Z,9.50
2019-03-12T05:10:33.190Z,10.80
2019-03-12T05:12:59.777Z,10.57
2019-03-12T05:15:26.351Z,9.43
2019-03-12T05:17:52.916Z,10.07
2019-03-12T05:20:19.498Z,10.40
2019-03-12T05:22:46.096Z,11.53
2019-03-12T05:25:12.663Z,9.63
2019-03-12T05:27:39.264Z,8.87
2019-03-12T05:30:05.828Z,9.40
2019-03-12T05:32:32.447Z,8.70
2019-03-12T05:34:59.159Z,8.90
2019-03-12T05:37:25.763Z,8.87
2019-03-12T05:39:52.397Z,8.57
2019-03-12T05:42:19.031Z,9.33
2019-03-12T05:44:45.602Z,9.63
2019-03-12T05:47:12.206Z,11.40
2019-03-12T05:49:38.787Z,11.10
2019-03-12T05:52:05.482Z,10.63
2019-03-12T05:54:32.054Z,10.67
2019-03-12T05:56:58.699Z,9.70
2019-03-12T05:59:25.301Z,10.57
2019-03-12T06:01:51.921Z,10.10
2019-03-12T06:04:18.483Z,10.50
2019-03-12T06:06:45.055Z,10.27
2019-03-12T06:09:11.639Z,10.47
2019-03-12T06:11:38.214Z,10.60
2019-03-12T06:14:04.789Z,9.90
2019-03-12T06:16:31.385Z,10.50
2019-03-12T06:18:57.966Z,10.13
2019-03-12T06:21:24.537Z,10.27
2019-03-12T06:23:51.191Z,11.60
2019-03-12T06:26:17.766Z,12.33
2019-03-12T06:28:44.338Z,10.70
2019-03-12T06:31:10.912Z,10.70
2019-03-12T06:33:37.487Z,11.10
2019-03-12T06:36:04.056Z,9.37
2019-03-12T06:38:30.628Z,8.80
2019-03-12T06:40:57.200Z,9.60
2019-03-12T06:43:23.764Z,11.70
2019-03-12T06:45:50.338Z,9.47
2019-03-12T06:48:16.946Z,10.43
2019-03-12T06:50:43.591Z,9.20
2019-03-12T06:53:10.202Z,10.63
2019-03-12T06:55:36.783Z,9.13
2019-03-12T06:58:03.347Z,11.40
2019-03-12T07:00:30.040Z,10.33
2019-03-12T07:02:56.608Z,10.60
2019-03-12T07:05:23.188Z,12.03
2019-03-12T07:07:49.761Z,11.87
2019-03-12T07:10:16.336Z,11.83
2019-03-12T07:12:42.899Z,11.40
2019-03-12T07:15:09.478Z,11.13
2019-03-12T07:17:36.052Z,12.03
2019-03-12T07:20:02.717Z,10.87
2019-03-12T07:22:29.292Z,9.70
2019-03-12T07:24:55.865Z,8.37
2019-03-12T07:27:22.463Z,8.70
2019-03-12T07:29:49.026Z,7.80
2019-03-12T07:32:15.699Z,8.03
2019-03-12T07:34:42.263Z,6.17
2019-03-12T07:37:08.869Z,6.37
2019-03-12T07:39:35.442Z,8.37
2019-03-12T07:42:02.039Z,8.77
2019-03-12T07:44:28.608Z,8.23
2019-03-12T07:46:55.213Z,6.77
2019-03-12T07:49:21.791Z,6.30
2019-03-12T07:51:48.378Z,6.57
2019-03-12T07:54:14.950Z,6.60
2019-03-12T07:56:41.543Z,5.80
2019-03-12T07:59:09.179Z,5.47
2019-03-12T08:01:35.992Z,6.27
2019-03-12T08:04:02.598Z,5.77
2019-03-12T08:06:29.176Z,6.40
2019-03-12T08:08:55.771Z,5.90
2019-03-12T08:11:22.347Z,6.80
2019-03-12T08:13:48.936Z,6.40
2019-03-12T08:16:15.509Z,6.53
2019-03-12T08:18:42.117Z,6.00
2019-03-12T08:21:21.446Z,7.07
2019-03-12T08:23:36.992Z,6.57
2019-03-12T08:26:03.571Z,5.80
2019-03-12T08:28:30.147Z,5.97
2019-03-12T08:30:56.712Z,5.90
2019-03-12T08:33:23.275Z,6.03
2019-03-12T08:35:49.852Z,5.77
2019-03-12T08:38:16.429Z,6.00
2019-03-12T08:40:51.904Z,5.57
2019-03-12T08:43:11.296Z,5.93
2019-03-12T08:45:37.923Z,6.30
2019-03-12T08:48:04.490Z,7.10
2019-03-12T08:50:31.104Z,6.60
2019-03-12T08:52:57.770Z,7.20
2019-03-12T08:55:24.342Z,5.87
2019-03-12T08:57:50.959Z,7.40
2019-03-12T09:00:17.540Z,7.72
2019-03-12T09:02:44.136Z,7.53
2019-03-12T09:05:10.711Z,9.75
2019-03-12T09:07:37.330Z,7.05
2019-03-12T09:10:03.893Z,4.75
2019-03-12T09:12:30.501Z,4.85
2019-03-12T09:14:57.259Z,4.50
2019-03-12T09:17:23.830Z,5.33
2019-03-12T09:19:50.401Z,5.33
2019-03-12T09:22:17.072Z,5.70
2019-03-12T09:24:43.645Z,4.90
2019-03-12T09:27:10.220Z,5.58
2019-03-12T09:29:36.807Z,4.97
2019-03-12T09:32:03.379Z,5.30
2019-03-12T09:34:30.000Z,5.17
2019-03-12T09:36:56.618Z,5.40
2019-03-12T09:39:23.237Z,6.37
2019-03-12T09:41:49.810Z,8.38
2019-03-12T09:44:16.406Z,7.92
2019-03-12T09:46:42.971Z,6.75
2019-03-12T09:49:10.853Z,8.83
2019-03-12T09:51:37.485Z,7.65
2019-03-12T09:54:04.058Z,6.97
2019-03-12T09:56:30.720Z,7.05
2019-03-12T09:58:57.288Z,5.78
2019-03-12T10:01:25.685Z,6.47
2019-03-12T10:03:52.380Z,8.83
2019-03-12T10:06:18.979Z,6.85
2019-03-12T10:08:45.545Z,5.70
2019-03-12T10:11:12.126Z,7.85
2019-03-12T10:13:38.705Z,7.42
2019-03-12T10:16:05.276Z,7.40
2019-03-12T10:18:31.947Z,7.67
2019-03-12T10:20:58.502Z,7.83
2019-03-12T10:23:25.084Z,7.47
2019-03-12T10:25:51.669Z,7.80
2019-03-12T10:28:18.252Z,6.85
2019-03-12T10:30:44.829Z,5.58
2019-03-12T10:33:11.396Z,5.92
2019-03-12T10:35:37.969Z,5.15
2019-03-12T10:38:04.585Z,4.62
2019-03-12T10:40:31.163Z,4.50
2019-03-12T10:42:57.803Z,6.50
2019-03-12T10:45:24.494Z,7.87
2019-03-12T10:47:51.080Z,6.53
2019-03-12T10:50:17.676Z,6.47
2019-03-12T10:52:44.255Z,7.37
2019-03-12T10:55:13.542Z,5.92
2019-03-12T10:57:39.228Z,5.80
2019-03-12T11:00:06.092Z,4.90
2019-03-12T11:02:32.664Z,5.12
2019-03-12T11:04:59.267Z,5.00
2019-03-12T11:07:26.009Z,8.65
2019-03-12T11:09:52.619Z,5.17
2019-03-12T11:12:19.189Z,5.85
2019-03-12T11:14:45.812Z,5.20
2019-03-12T11:17:12.394Z,5.85
2019-03-12T11:19:38.998Z,5.45
2019-03-12T11:22:05.563Z,4.40
2019-03-12T11:24:32.164Z,5.00
2019-03-12T11:26:58.911Z,4.62
2019-03-12T11:29:25.521Z,3.90
2019-03-12T11:31:52.099Z,4.15
2019-03-12T11:34:18.687Z,3.47
2019-03-12T11:36:45.261Z,6.75
2019-03-12T11:39:11.927Z,4.05
2019-03-12T11:41:38.653Z,4.17
2019-03-12T11:44:05.239Z,5.90
2019-03-12T11:46:41.778Z,4.17
2019-03-12T11:49:00.261Z,5.58
2019-03-12T11:51:26.997Z,6.20
2019-03-12T11:53:53.616Z,5.90
2019-03-12T11:56:20.178Z,5.53
2019-03-12T11:58:46.972Z,6.03
2019-03-12T12:01:13.717Z,5.90
2019-03-12T12:03:40.351Z,6.05
2019-03-12T12:06:06.926Z,6.10
2019-03-12T12:08:33.514Z,5.20
2019-03-12T12:11:00.271Z,4.47
2019-03-12T12:13:26.854Z,4.65
2019-03-12T12:15:54.480Z,4.12
2019-03-12T12:18:21.052Z,3.27
2019-03-12T12:20:47.656Z,3.17
2019-03-12T12:23:14.229Z,3.85
2019-03-12T12:25:40.816Z,4.08
2019-03-12T12:28:07.389Z,3.98
2019-03-12T12:30:33.997Z,4.08
2019-03-12T12:33:00.571Z,3.45
2019-03-12T12:35:27.177Z,3.92
2019-03-12T12:37:53.744Z,3.20
2019-03-12T12:40:20.343Z,5.20
2019-03-12T12:42:46.917Z,3.17
2019-03-12T12:45:13.519Z,4.05
2019-03-12T12:47:40.092Z,4.05
2019-03-12T12:50:06.701Z,4.35
2019-03-12T12:52:33.324Z,6.80
2019-03-12T12:54:59.956Z,4.20
2019-03-12T12:57:26.532Z,4.25
2019-03-12T12:59:53.142Z,3.47
2019-03-12T13:02:19.722Z,3.12
2019-03-12T13:04:46.316Z,3.12
2019-03-12T13:07:12.894Z,3.42
2019-03-12T13:09:39.530Z,3.60
2019-03-12T13:12:06.100Z,5.10
2019-03-12T13:14:41.346Z,6.95
2019-03-12T13:17:01.017Z,5.20
2019-03-12T13:19:27.625Z,5.72
2019-03-12T13:21:54.225Z,5.12
2019-03-12T13:24:20.803Z,5.65
2019-03-12T13:26:47.370Z,4.80
2019-03-12T13:29:13.950Z,3.67
2019-03-12T13:31:40.534Z,4.83
2019-03-12T13:34:07.114Z,4.05
2019-03-12T13:36:33.699Z,3.27
2019-03-12T13:39:00.365Z,3.20
2019-03-12T13:41:27.017Z,4.47
2019-03-12T13:43:53.586Z,4.30
2019-03-12T13:46:20.169Z,3.72
2019-03-12T13:48:46.841Z,3.25
2019-03-12T13:51:13.406Z,3.60
2019-03-12T13:53:39.998Z,2.95
2019-03-12T13:56:06.657Z,3.27
2019-03-12T13:58:33.286Z,4.15
2019-03-12T14:00:59.885Z,4.25
2019-03-12T14:03:26.554Z,3.75
2019-03-12T14:05:53.137Z,3.77
2019-03-12T14:08:19.706Z,3.17
2019-03-12T14:10:46.283Z,4.90
2019-03-12T14:13:12.847Z,4.37
2019-03-12T14:15:39.447Z,3.83
2019-03-12T14:18:06.015Z,3.45
2019-03-12T14:20:32.612Z,4.62
2019-03-12T14:22:59.199Z,6.00
2019-03-12T14:25:25.789Z,4.85
2019-03-12T14:27:52.374Z,4.22
2019-03-12T14:30:19.011Z,5.20
2019-03-12T14:32:45.588Z,5.00
2019-03-12T14:35:12.202Z,4.53
2019-03-12T14:37:38.776Z,5.15
2019-03-12T14:40:05.364Z,3.87
2019-03-12T14:42:31.936Z,5.97
2019-03-12T14:44:58.529Z,4.42
2019-03-12T14:47:25.175Z,5.05
2019-03-12T14:49:51.748Z,5.58
2019-03-12T14:52:18.319Z,5.00
2019-03-12T14:54:44.904Z,6.87
2019-03-12T14:57:11.475Z,5.67
2019-03-12T14:59:38.051Z,4.72
2019-03-12T15:02:04.612Z,6.50
2019-03-12T15:04:31.190Z,4.83
2019-03-12T15:06:57.770Z,4.42
2019-03-12T15:09:24.351Z,7.80
2019-03-12T15:11:51.077Z,5.40
2019-03-12T15:14:17.646Z,3.98
2019-03-12T15:16:44.219Z,4.15
2019-03-12T15:19:10.798Z,5.40
2019-03-12T15:21:37.381Z,5.50
2019-03-12T15:24:03.976Z,4.50
2019-03-12T15:26:30.577Z,4.75
2019-03-12T15:28:57.159Z,5.20
2019-03-12T15:31:23.771Z,4.55
2019-03-12T15:33:50.345Z,5.50
2019-03-12T15:36:16.947Z,5.75
2019-03-12T15:38:43.582Z,6.70
2019-03-12T15:41:10.174Z,6.45
2019-03-12T15:43:36.927Z,8.48
2019-03-12T15:46:03.541Z,10.75
2019-03-12T15:48:30.125Z,13.00
2019-03-12T15:50:56.736Z,6.12
2019-03-12T15:53:23.303Z,5.05
2019-03-12T15:55:49.899Z,5.83
2019-03-12T15:58:16.478Z,6.00
2019-03-12T16:00:43.092Z,6.60
2019-03-12T16:03:09.675Z,6.30
2019-03-12T16:05:36.254Z,6.85
2019-03-12T16:08:02.835Z,5.12
2019-03-12T16:10:29.402Z,4.83
2019-03-12T16:12:55.973Z,5.30
2019-03-12T16:15:22.560Z,5.87
2019-03-12T16:17:49.135Z,5.65
2019-03-12T16:20:15.720Z,7.03
2019-03-12T16:22:42.314Z,5.53
2019-03-12T16:25:08.885Z,7.42
2019-03-12T16:27:35.626Z,5.90
2019-03-12T16:30:02.198Z,6.60
2019-03-12T16:32:28.813Z,6.90
2019-03-12T16:34:55.385Z,8.40
2019-03-12T16:37:21.989Z,11.53
2019-03-12T16:39:48.559Z,11.83
2019-03-12T16:42:15.169Z,13.18
2019-03-12T16:44:41.739Z,14.40
2019-03-12T16:47:08.347Z,14.03
2019-03-12T16:49:34.926Z,13.78
2019-03-12T16:52:01.548Z,10.53
2019-03-12T16:54:28.170Z,12.55
2019-03-12T16:56:55.051Z,11.20
2019-03-12T16:59:28.021Z,15.50
2019-03-12T17:02:13.130Z,18.37
2019-03-12T17:04:39.705Z,20.43
2019-03-12T17:07:06.301Z,15.45
2019-03-12T17:09:32.874Z,10.65
2019-03-12T17:11:59.470Z,14.28
2019-03-12T17:14:38.282Z,14.05
2019-03-12T17:16:55.402Z,16.15
2019-03-12T17:19:21.988Z,23.12
2019-03-12T17:21:48.602Z,22.00
2019-03-12T17:24:15.175Z,21.07
2019-03-12T17:26:41.775Z,16.02
2019-03-12T17:29:08.358Z,22.87
2019-03-12T17:31:34.964Z,24.07
2019-03-12T17:34:01.539Z,30.88
2019-03-12T17:36:28.612Z,40.45
2019-03-12T17:38:55.424Z,38.02
2019-03-12T17:41:22.027Z,46.73
2019-03-12T17:43:48.606Z,46.30
2019-03-12T17:46:15.258Z,45.78
2019-03-12T17:48:41.844Z,44.42
2019-03-12T17:51:08.419Z,42.13
2019-03-12T17:53:35.001Z,41.73
2019-03-12T17:56:01.578Z,40.25
2019-03-12T17:58:28.162Z,42.83
2019-03-12T18:00:54.731Z,35.28
2019-03-12T18:03:21.312Z,35.88
2019-03-12T18:05:47.888Z,38.38
2019-03-12T18:08:14.459Z,38.53
2019-03-12T18:10:41.044Z,32.83
2019-03-12T18:13:07.618Z,34.70
2019-03-12T18:15:34.195Z,34.57
2019-03-12T18:18:00.769Z,32.00
2019-03-12T18:20:27.341Z,26.97
2019-03-12T18:22:53.919Z,26.42
2019-03-12T18:25:20.488Z,21.60
2019-03-12T18:27:47.113Z,24.03
2019-03-12T18:30:13.680Z,31.93
2019-03-12T18:32:40.299Z,36.42
2019-03-12T18:35:06.868Z,29.87
2019-03-12T18:37:33.460Z,29.80
2019-03-12T18:40:00.029Z,29.33
2019-03-12T18:42:26.634Z,30.97
2019-03-12T18:44:53.213Z,32.30
2019-03-12T18:47:19.831Z,31.23
2019-03-12T18:49:46.428Z,34.17
2019-03-12T18:52:13.085Z,34.63
2019-03-12T18:54:39.652Z,33.20
2019-03-12T18:57:06.273Z,36.43
2019-03-12T18:59:32.842Z,32.20
2019-03-12T19:01:59.407Z,34.10
2019-03-12T19:04:25.991Z,33.07
2019-03-12T19:06:52.567Z,29.70
2019-03-12T19:09:19.143Z,28.27
2019-03-12T19:11:48.489Z,29.50
2019-03-12T19:14:14.021Z,28.50
2019-03-12T19:16:40.592Z,29.43
2019-03-12T19:19:07.161Z,32.10
2019-03-12T19:21:33.731Z,27.40
2019-03-12T19:24:00.312Z,30.53
2019-03-12T19:26:26.885Z,28.30
2019-03-12T19:28:53.454Z,29.00
2019-03-12T19:33:56.494Z,29.13
2019-03-12T19:36:23.072Z,25.93
2019-03-12T19:38:49.655Z,24.30
2019-03-12T19:41:16.232Z,26.00
2019-03-12T19:43:43.422Z,24.60
2019-03-12T19:46:10.676Z,23.57
2019-03-12T19:48:38.074Z,21.87
2019-03-12T19:51:04.647Z,23.27
2019-03-12T19:53:31.228Z,19.90
2019-03-12T19:55:57.800Z,22.67
2019-03-12T19:58:24.375Z,23.20
2019-03-12T20:00:50.943Z,23.37
2019-03-12T20:03:17.638Z,22.23
2019-03-12T20:05:44.199Z,19.57
2019-03-12T20:08:10.829Z,19.70
2019-03-12T20:10:37.396Z,21.87
2019-03-12T20:13:04.107Z,20.53
2019-03-12T20:15:30.688Z,22.17
2019-03-12T20:17:57.316Z,20.77
2019-03-12T20:20:23.913Z,21.50
2019-03-12T20:22:50.470Z,21.60
2019-03-12T20:25:17.071Z,18.93
2019-03-12T20:27:45.034Z,18.00
2019-03-12T20:30:12.005Z,17.57
2019-03-12T20:32:38.578Z,17.37
2019-03-12T20:35:05.433Z,16.30
2019-03-12T20:37:32.134Z,17.43
2019-03-12T20:39:58.768Z,17.63
2019-03-12T20:42:25.361Z,16.97
2019-03-12T20:44:51.930Z,17.73
2019-03-12T20:47:18.505Z,17.50
2019-03-12T20:49:45.079Z,17.27
2019-03-12T20:52:11.673Z,15.87
2019-03-12T20:54:38.353Z,17.63
2019-03-12T20:57:04.967Z,17.67
2019-03-12T20:59:31.573Z,15.73
2019-03-12T21:01:58.177Z,15.10
2019-03-12T21:04:24.759Z,12.90
2019-03-12T21:06:51.414Z,13.43
2019-03-12T21:09:17.992Z,13.97
2019-03-12T21:11:44.558Z,13.33
2019-03-12T21:14:11.145Z,13.63
2019-03-12T21:16:37.714Z,15.83
2019-03-12T21:19:04.301Z,15.00
2019-03-12T21:21:32.940Z,14.37
2019-03-12T21:24:01.241Z,16.23
2019-03-12T21:26:27.820Z,21.17
2019-03-12T21:28:54.446Z,17.57
2019-03-12T21:31:21.043Z,16.70
2019-03-12T21:33:47.632Z,17.60
2019-03-12T21:36:14.201Z,15.30
2019-03-12T21:38:40.780Z,17.20
2019-03-12T21:41:07.402Z,16.27
2019-03-12T21:43:35.020Z,14.97
2019-03-12T21:46:01.547Z,14.13
2019-03-12T21:48:28.123Z,14.90
2019-03-12T21:50:54.700Z,12.60
2019-03-12T21:53:21.277Z,13.30
2019-03-12T21:55:47.849Z,12.90
2019-03-12T21:58:14.413Z,12.47
2019-03-12T22:00:40.987Z,13.97
2019-03-12T22:03:07.560Z,12.13
2019-03-12T22:05:34.134Z,12.40
2019-03-12T22:08:00.708Z,12.93
2019-03-12T22:10:27.346Z,12.97
2019-03-12T22:12:53.966Z,12.93
2019-03-12T22:15:20.573Z,13.97
2019-03-12T22:17:47.167Z,14.47
2019-03-12T22:20:13.777Z,13.67
2019-03-12T22:22:40.352Z,15.30
2019-03-12T22:25:06.955Z,15.00
2019-03-12T22:27:33.534Z,15.33
2019-03-12T22:30:00.279Z,15.67
2019-03-12T22:32:27.104Z,16.80
2019-03-12T22:34:53.718Z,15.30
2019-03-12T22:37:20.284Z,16.37
2019-03-12T22:39:46.952Z,15.23
2019-03-12T22:42:13.590Z,16.77
2019-03-12T22:44:40.233Z,17.03
2019-03-12T22:47:06.813Z,15.10
2019-03-12T22:49:33.389Z,14.20
2019-03-12T22:51:59.982Z,14.20
2019-03-12T22:54:26.581Z,13.93
2019-03-12T22:56:53.151Z,13.27
2019-03-12T22:59:19.725Z,13.97
2019-03-12T23:01:46.321Z,14.30
2019-03-12T23:04:12.949Z,12.63
2019-03-12T23:06:39.559Z,13.77
2019-03-12T23:09:06.132Z,13.07
2019-03-12T23:11:32.708Z,13.67
2019-03-12T23:13:59.276Z,12.53
2019-03-12T23:16:25.849Z,13.20
2019-03-12T23:18:52.416Z,11.60
2019-03-12T23:21:19.007Z,11.67
2019-03-12T23:23:45.585Z,11.33
2019-03-12T23:26:12.201Z,13.60
2019-03-12T23:28:38.755Z,10.87
2019-03-12T23:31:05.373Z,11.77
2019-03-12T23:33:31.943Z,10.00
2019-03-12T23:35:58.525Z,11.30
2019-03-12T23:38:25.125Z,9.83
2019-03-12T23:40:51.737Z,9.87
2019-03-12T23:43:18.307Z,10.13
2019-03-12T23:45:45.852Z,9.70
2019-03-12T23:48:12.433Z,10.50
2019-03-12T23:50:39.045Z,8.70
2019-03-12T23:53:05.627Z,8.80
2019-03-12T23:55:32.205Z,8.97
2019-03-12T23:57:58.785Z,7.87
